sensor_id;sensor_type;location;lat;lon;timestamp;temperature;humidity
582;DHT22;277;50.074;8.436;2022-12-07T00:02:08;4.10;99.90
582;DHT22;277;50.074;8.436;2022-12-07T00:04:37;4.00;99.90
582;DHT22;277;50.074;8.436;2022-12-07T00:07:04;3.90;99.90
582;DHT22;277;50.074;8.436;2022-12-07T00:09:32;4.00;99.90
582;DHT22;277;50.074;8.436;2022-12-07T00:12:00;3.90;99.90
582;DHT22;277;50.074;8.436;2022-12-07T00:14:27;3.90;99.90
582;DHT22;277;50.074;8.436;2022-12-07T00:16:55;3.90;99.90
582;DHT22;277;50.074;8.436;2022-12-07T00:19:23;3.70;99.90
582;DHT22;277;50.074;8.436;2022-12-07T00:21:52;3.50;99.90
582;DHT22;277;50.074;8.436;2022-12-07T00:24:20;3.40;99.90
582;DHT22;277;50.074;8.436;2022-12-07T00:26:47;3.30;99.90
582;DHT22;277;50.074;8.436;2022-12-07T00:29:16;3.30;99.90
582;DHT22;277;50.074;8.436;2022-12-07T00:31:44;3.30;99.90
582;DHT22;277;50.074;8.436;2022-12-07T00:34:12;3.30;99.90
582;DHT22;277;50.074;8.436;2022-12-07T00:36:40;3.30;99.90
582;DHT22;277;50.074;8.436;2022-12-07T00:39:09;3.30;99.90
582;DHT22;277;50.074;8.436;2022-12-07T00:41:37;3.30;99.90
582;DHT22;277;50.074;8.436;2022-12-07T00:44:05;3.30;99.90
582;DHT22;277;50.074;8.436;2022-12-07T00:46:33;3.40;99.90
582;DHT22;277;50.074;8.436;2022-12-07T00:49:00;3.40;99.90
582;DHT22;277;50.074;8.436;2022-12-07T00:51:28;3.40;99.90
582;DHT22;277;50.074;8.436;2022-12-07T00:53:56;3.50;99.90
582;DHT22;277;50.074;8.436;2022-12-07T00:56:26;3.50;99.90
582;DHT22;277;50.074;8.436;2022-12-07T00:58:54;3.50;99.90
582;DHT22;277;50.074;8.436;2022-12-07T01:01:23;3.50;99.90
582;DHT22;277;50.074;8.436;2022-12-07T01:03:51;3.50;99.90
582;DHT22;277;50.074;8.436;2022-12-07T01:06:19;3.50;99.90
582;DHT22;277;50.074;8.436;2022-12-07T01:08:48;3.50;99.90
582;DHT22;277;50.074;8.436;2022-12-07T01:11:16;3.60;99.90
582;DHT22;277;50.074;8.436;2022-12-07T01:13:45;3.50;99.90
582;DHT22;277;50.074;8.436;2022-12-07T01:16:14;3.50;99.90
582;DHT22;277;50.074;8.436;2022-12-07T01:18:43;3.50;99.90
582;DHT22;277;50.074;8.436;2022-12-07T01:21:14;3.50;99.90
582;DHT22;277;50.074;8.436;2022-12-07T01:23:42;3.50;99.90
582;DHT22;277;50.074;8.436;2022-12-07T01:26:11;3.50;99.90
582;DHT22;277;50.074;8.436;2022-12-07T01:28:39;3.40;99.90
582;DHT22;277;50.074;8.436;2022-12-07T01:31:09;3.50;99.90
582;DHT22;277;50.074;8.436;2022-12-07T01:33:38;3.40;99.90
582;DHT22;277;50.074;8.436;2022-12-07T01:36:07;3.50;99.90
582;DHT22;277;50.074;8.436;2022-12-07T01:38:35;3.40;99.90
582;DHT22;277;50.074;8.436;2022-12-07T01:41:02;3.40;99.90
582;DHT22;277;50.074;8.436;2022-12-07T01:43:31;3.30;99.90
582;DHT22;277;50.074;8.436;2022-12-07T01:45:59;3.40;99.90
582;DHT22;277;50.074;8.436;2022-12-07T01:48:30;3.40;99.90
582;DHT22;277;50.074;8.436;2022-12-07T01:51:00;3.40;99.90
582;DHT22;277;50.074;8.436;2022-12-07T01:53:31;3.30;99.90
582;DHT22;277;50.074;8.436;2022-12-07T01:55:59;3.30;99.90
582;DHT22;277;50.074;8.436;2022-12-07T01:58:27;3.40;99.90
582;DHT22;277;50.074;8.436;2022-12-07T02:00:55;3.40;99.90
582;DHT22;277;50.074;8.436;2022-12-07T02:03:24;3.50;99.90
582;DHT22;277;50.074;8.436;2022-12-07T02:05:54;3.50;99.90
582;DHT22;277;50.074;8.436;2022-12-07T02:08:22;3.60;99.90
582;DHT22;277;50.074;8.436;2022-12-07T02:10:51;3.50;99.90
582;DHT22;277;50.074;8.436;2022-12-07T02:13:19;3.60;99.90
582;DHT22;277;50.074;8.436;2022-12-07T02:18:43;3.70;99.90
582;DHT22;277;50.074;8.436;2022-12-07T02:21:14;3.70;99.90
582;DHT22;277;50.074;8.436;2022-12-07T02:23:49;3.70;99.90
582;DHT22;277;50.074;8.436;2022-12-07T02:29:13;3.60;99.90
582;DHT22;277;50.074;8.436;2022-12-07T02:31:43;3.70;99.90
582;DHT22;277;50.074;8.436;2022-12-07T02:34:12;3.70;99.90
582;DHT22;277;50.074;8.436;2022-12-07T02:36:43;3.70;99.90
582;DHT22;277;50.074;8.436;2022-12-07T02:39:15;3.70;99.90
582;DHT22;277;50.074;8.436;2022-12-07T02:41:44;3.70;99.90
582;DHT22;277;50.074;8.436;2022-12-07T02:44:16;3.70;99.90
582;DHT22;277;50.074;8.436;2022-12-07T02:46:46;3.70;99.90
582;DHT22;277;50.074;8.436;2022-12-07T02:49:15;3.60;99.90
582;DHT22;277;50.074;8.436;2022-12-07T02:51:44;3.70;99.90
582;DHT22;277;50.074;8.436;2022-12-07T02:54:17;3.60;99.90
582;DHT22;277;50.074;8.436;2022-12-07T02:56:45;3.60;99.90
582;DHT22;277;50.074;8.436;2022-12-07T02:59:20;3.60;99.90
582;DHT22;277;50.074;8.436;2022-12-07T03:01:53;3.50;99.90
582;DHT22;277;50.074;8.436;2022-12-07T03:04:28;3.50;99.90
582;DHT22;277;50.074;8.436;2022-12-07T03:07:01;3.50;99.90
582;DHT22;277;50.074;8.436;2022-12-07T03:09:32;3.50;99.90
582;DHT22;277;50.074;8.436;2022-12-07T03:12:05;3.40;99.90
582;DHT22;277;50.074;8.436;2022-12-07T03:14:38;3.40;99.90
582;DHT22;277;50.074;8.436;2022-12-07T03:17:10;3.40;99.90
582;DHT22;277;50.074;8.436;2022-12-07T03:19:40;3.50;99.90
582;DHT22;277;50.074;8.436;2022-12-07T03:22:09;3.50;99.90
582;DHT22;277;50.074;8.436;2022-12-07T03:24:39;3.50;99.90
582;DHT22;277;50.074;8.436;2022-12-07T03:27:09;3.50;99.90
582;DHT22;277;50.074;8.436;2022-12-07T03:29:41;3.60;99.90
582;DHT22;277;50.074;8.436;2022-12-07T03:32:12;3.60;99.90
582;DHT22;277;50.074;8.436;2022-12-07T03:34:42;3.60;99.90
582;DHT22;277;50.074;8.436;2022-12-07T03:37:12;3.60;99.90
582;DHT22;277;50.074;8.436;2022-12-07T03:39:45;3.60;99.90
582;DHT22;277;50.074;8.436;2022-12-07T03:42:14;3.60;99.90
582;DHT22;277;50.074;8.436;2022-12-07T03:44:43;3.60;99.90
582;DHT22;277;50.074;8.436;2022-12-07T03:47:11;3.70;99.90
582;DHT22;277;50.074;8.436;2022-12-07T03:49:42;3.70;99.90
582;DHT22;277;50.074;8.436;2022-12-07T03:52:12;3.70;99.90
582;DHT22;277;50.074;8.436;2022-12-07T03:54:40;3.70;99.90
582;DHT22;277;50.074;8.436;2022-12-07T03:57:09;3.80;99.90
582;DHT22;277;50.074;8.436;2022-12-07T03:59:38;3.70;99.90
582;DHT22;277;50.074;8.436;2022-12-07T04:02:07;3.80;99.90
582;DHT22;277;50.074;8.436;2022-12-07T04:04:35;3.70;99.90
582;DHT22;277;50.074;8.436;2022-12-07T04:07:03;3.70;99.90
582;DHT22;277;50.074;8.436;2022-12-07T04:09:30;3.70;99.90
582;DHT22;277;50.074;8.436;2022-12-07T04:11:58;3.80;99.90
582;DHT22;277;50.074;8.436;2022-12-07T04:14:26;3.80;99.90
582;DHT22;277;50.074;8.436;2022-12-07T04:16:54;3.80;99.90
582;DHT22;277;50.074;8.436;2022-12-07T04:19:25;3.70;99.90
582;DHT22;277;50.074;8.436;2022-12-07T04:21:53;3.80;99.90
582;DHT22;277;50.074;8.436;2022-12-07T04:24:21;3.80;99.90
582;DHT22;277;50.074;8.436;2022-12-07T04:26:49;3.80;99.90
582;DHT22;277;50.074;8.436;2022-12-07T04:29:17;3.80;99.90
582;DHT22;277;50.074;8.436;2022-12-07T04:31:45;3.80;99.90
582;DHT22;277;50.074;8.436;2022-12-07T04:34:13;3.80;99.90
582;DHT22;277;50.074;8.436;2022-12-07T04:36:42;3.80;99.90
582;DHT22;277;50.074;8.436;2022-12-07T04:39:14;3.80;99.90
582;DHT22;277;50.074;8.436;2022-12-07T04:41:44;3.80;99.90
582;DHT22;277;50.074;8.436;2022-12-07T04:44:12;3.80;99.90
582;DHT22;277;50.074;8.436;2022-12-07T04:46:41;3.80;99.90
582;DHT22;277;50.074;8.436;2022-12-07T04:49:09;3.80;99.90
582;DHT22;277;50.074;8.436;2022-12-07T04:51:37;3.80;99.90
582;DHT22;277;50.074;8.436;2022-12-07T04:54:06;3.80;99.90
582;DHT22;277;50.074;8.436;2022-12-07T04:56:34;3.80;99.90
582;DHT22;277;50.074;8.436;2022-12-07T04:59:02;3.90;99.90
582;DHT22;277;50.074;8.436;2022-12-07T05:01:30;3.90;99.90
582;DHT22;277;50.074;8.436;2022-12-07T05:03:58;3.90;99.90
582;DHT22;277;50.074;8.436;2022-12-07T05:06:26;4.00;99.90
582;DHT22;277;50.074;8.436;2022-12-07T05:08:53;4.00;99.90
582;DHT22;277;50.074;8.436;2022-12-07T05:11:22;4.00;99.90
582;DHT22;277;50.074;8.436;2022-12-07T05:14:06;4.00;99.90
582;DHT22;277;50.074;8.436;2022-12-07T05:16:34;4.00;99.90
582;DHT22;277;50.074;8.436;2022-12-07T05:19:02;4.10;99.90
582;DHT22;277;50.074;8.436;2022-12-07T05:21:30;4.10;99.90
582;DHT22;277;50.074;8.436;2022-12-07T05:23:57;4.10;99.90
582;DHT22;277;50.074;8.436;2022-12-07T05:26:27;4.10;99.90
582;DHT22;277;50.074;8.436;2022-12-07T05:28:55;4.10;99.90
582;DHT22;277;50.074;8.436;2022-12-07T05:31:23;4.10;99.90
582;DHT22;277;50.074;8.436;2022-12-07T05:33:51;4.20;99.90
582;DHT22;277;50.074;8.436;2022-12-07T05:36:19;4.20;99.90
582;DHT22;277;50.074;8.436;2022-12-07T05:38:46;4.20;99.90
582;DHT22;277;50.074;8.436;2022-12-07T05:41:15;4.20;99.90
582;DHT22;277;50.074;8.436;2022-12-07T05:44:02;4.20;99.90
582;DHT22;277;50.074;8.436;2022-12-07T05:46:30;4.20;99.90
582;DHT22;277;50.074;8.436;2022-12-07T05:48:58;4.20;99.90
582;DHT22;277;50.074;8.436;2022-12-07T05:51:25;4.10;99.90
582;DHT22;277;50.074;8.436;2022-12-07T05:53:53;4.10;99.90
582;DHT22;277;50.074;8.436;2022-12-07T05:56:21;4.10;99.90
582;DHT22;277;50.074;8.436;2022-12-07T05:58:49;4.10;99.90
582;DHT22;277;50.074;8.436;2022-12-07T06:01:35;4.10;99.90
582;DHT22;277;50.074;8.436;2022-12-07T06:04:03;4.10;99.90
582;DHT22;277;50.074;8.436;2022-12-07T06:06:31;4.10;99.90
582;DHT22;277;50.074;8.436;2022-12-07T06:08:59;4.10;99.90
582;DHT22;277;50.074;8.436;2022-12-07T06:11:26;4.10;99.90
582;DHT22;277;50.074;8.436;2022-12-07T06:14:12;4.10;99.90
582;DHT22;277;50.074;8.436;2022-12-07T06:16:41;4.20;99.90
582;DHT22;277;50.074;8.436;2022-12-07T06:19:09;4.20;99.90
582;DHT22;277;50.074;8.436;2022-12-07T06:21:36;4.20;99.90
582;DHT22;277;50.074;8.436;2022-12-07T06:24:04;4.20;99.90
582;DHT22;277;50.074;8.436;2022-12-07T06:26:32;4.30;99.90
582;DHT22;277;50.074;8.436;2022-12-07T06:29:00;4.30;99.90
582;DHT22;277;50.074;8.436;2022-12-07T06:31:28;4.30;99.90
582;DHT22;277;50.074;8.436;2022-12-07T06:34:00;4.30;99.90
582;DHT22;277;50.074;8.436;2022-12-07T06:36:28;4.40;99.90
582;DHT22;277;50.074;8.436;2022-12-07T06:38:56;4.40;99.90
582;DHT22;277;50.074;8.436;2022-12-07T06:41:24;4.30;99.90
582;DHT22;277;50.074;8.436;2022-12-07T06:43:51;4.30;99.90
582;DHT22;277;50.074;8.436;2022-12-07T06:46:21;4.20;99.90
582;DHT22;277;50.074;8.436;2022-12-07T06:48:49;4.20;99.90
582;DHT22;277;50.074;8.436;2022-12-07T06:51:18;4.20;99.90
582;DHT22;277;50.074;8.436;2022-12-07T06:53:46;4.20;99.90
582;DHT22;277;50.074;8.436;2022-12-07T06:56:14;4.10;99.90
582;DHT22;277;50.074;8.436;2022-12-07T06:58:42;4.10;99.90
582;DHT22;277;50.074;8.436;2022-12-07T07:01:10;4.10;99.90
582;DHT22;277;50.074;8.436;2022-12-07T07:03:38;4.10;99.90
582;DHT22;277;50.074;8.436;2022-12-07T07:06:06;4.10;99.90
582;DHT22;277;50.074;8.436;2022-12-07T07:08:36;4.10;99.90
582;DHT22;277;50.074;8.436;2022-12-07T07:11:04;4.00;99.90
582;DHT22;277;50.074;8.436;2022-12-07T07:13:32;4.10;99.90
582;DHT22;277;50.074;8.436;2022-12-07T07:16:00;4.10;99.90
582;DHT22;277;50.074;8.436;2022-12-07T07:18:27;4.10;99.90
582;DHT22;277;50.074;8.436;2022-12-07T07:20:55;4.10;99.90
582;DHT22;277;50.074;8.436;2022-12-07T07:23:23;4.10;99.90
582;DHT22;277;50.074;8.436;2022-12-07T07:25:52;4.10;99.90
582;DHT22;277;50.074;8.436;2022-12-07T07:28:20;4.10;99.90
582;DHT22;277;50.074;8.436;2022-12-07T07:30:47;4.10;99.90
582;DHT22;277;50.074;8.436;2022-12-07T07:33:15;4.10;99.90
582;DHT22;277;50.074;8.436;2022-12-07T07:35:43;4.00;99.90
582;DHT22;277;50.074;8.436;2022-12-07T07:38:11;4.10;99.90
582;DHT22;277;50.074;8.436;2022-12-07T07:40:38;4.00;99.90
582;DHT22;277;50.074;8.436;2022-12-07T07:43:07;4.00;99.90
582;DHT22;277;50.074;8.436;2022-12-07T07:45:35;4.00;99.90
582;DHT22;277;50.074;8.436;2022-12-07T07:48:03;4.00;99.90
582;DHT22;277;50.074;8.436;2022-12-07T07:50:31;4.10;99.90
582;DHT22;277;50.074;8.436;2022-12-07T07:52:58;4.10;99.90
582;DHT22;277;50.074;8.436;2022-12-07T07:55:26;4.10;99.90
582;DHT22;277;50.074;8.436;2022-12-07T07:57:54;4.10;99.90
582;DHT22;277;50.074;8.436;2022-12-07T08:00:23;4.00;99.90
582;DHT22;277;50.074;8.436;2022-12-07T08:02:51;4.10;99.90
582;DHT22;277;50.074;8.436;2022-12-07T08:05:19;4.00;99.90
582;DHT22;277;50.074;8.436;2022-12-07T08:07:46;3.90;99.90
582;DHT22;277;50.074;8.436;2022-12-07T08:10:14;4.00;99.90
582;DHT22;277;50.074;8.436;2022-12-07T08:12:42;4.00;99.90
582;DHT22;277;50.074;8.436;2022-12-07T08:15:26;4.10;99.90
582;DHT22;277;50.074;8.436;2022-12-07T08:17:54;4.10;99.90
582;DHT22;277;50.074;8.436;2022-12-07T08:20:22;4.10;99.90
582;DHT22;277;50.074;8.436;2022-12-07T08:22:50;4.20;99.90
582;DHT22;277;50.074;8.436;2022-12-07T08:25:17;4.20;99.90
582;DHT22;277;50.074;8.436;2022-12-07T08:27:45;4.20;99.90
582;DHT22;277;50.074;8.436;2022-12-07T08:30:13;4.20;99.90
582;DHT22;277;50.074;8.436;2022-12-07T08:32:42;4.20;99.90
582;DHT22;277;50.074;8.436;2022-12-07T08:35:11;4.20;99.90
582;DHT22;277;50.074;8.436;2022-12-07T08:37:39;4.30;99.90
582;DHT22;277;50.074;8.436;2022-12-07T08:40:08;4.50;99.90
582;DHT22;277;50.074;8.436;2022-12-07T08:42:36;4.70;99.90
582;DHT22;277;50.074;8.436;2022-12-07T08:45:07;4.90;99.90
582;DHT22;277;50.074;8.436;2022-12-07T08:47:35;4.90;99.90
582;DHT22;277;50.074;8.436;2022-12-07T08:50:06;4.90;99.90
582;DHT22;277;50.074;8.436;2022-12-07T08:52:34;4.90;99.90
582;DHT22;277;50.074;8.436;2022-12-07T08:55:02;5.20;99.90
582;DHT22;277;50.074;8.436;2022-12-07T08:57:31;5.80;99.90
582;DHT22;277;50.074;8.436;2022-12-07T09:00:00;6.30;99.90
582;DHT22;277;50.074;8.436;2022-12-07T09:02:28;6.70;99.90
582;DHT22;277;50.074;8.436;2022-12-07T09:04:57;6.80;99.90
582;DHT22;277;50.074;8.436;2022-12-07T09:07:26;6.90;99.90
582;DHT22;277;50.074;8.436;2022-12-07T09:09:54;7.10;99.90
582;DHT22;277;50.074;8.436;2022-12-07T09:12:22;7.60;99.90
582;DHT22;277;50.074;8.436;2022-12-07T09:14:50;7.80;99.90
582;DHT22;277;50.074;8.436;2022-12-07T09:17:17;8.00;99.90
582;DHT22;277;50.074;8.436;2022-12-07T09:19:45;8.20;99.90
582;DHT22;277;50.074;8.436;2022-12-07T09:22:13;8.60;99.90
582;DHT22;277;50.074;8.436;2022-12-07T09:24:42;9.00;99.90
582;DHT22;277;50.074;8.436;2022-12-07T09:27:11;9.60;99.90
582;DHT22;277;50.074;8.436;2022-12-07T09:29:39;9.80;99.90
582;DHT22;277;50.074;8.436;2022-12-07T09:32:07;9.70;99.90
582;DHT22;277;50.074;8.436;2022-12-07T09:34:37;9.50;99.90
582;DHT22;277;50.074;8.436;2022-12-07T09:37:05;9.50;99.90
582;DHT22;277;50.074;8.436;2022-12-07T09:39:33;9.40;99.90
582;DHT22;277;50.074;8.436;2022-12-07T09:42:03;9.20;99.90
582;DHT22;277;50.074;8.436;2022-12-07T09:44:32;9.00;99.90
582;DHT22;277;50.074;8.436;2022-12-07T09:47:00;9.20;99.90
582;DHT22;277;50.074;8.436;2022-12-07T09:49:29;9.50;99.90
582;DHT22;277;50.074;8.436;2022-12-07T09:51:59;9.70;99.90
582;DHT22;277;50.074;8.436;2022-12-07T09:54:27;9.30;99.90
582;DHT22;277;50.074;8.436;2022-12-07T09:56:56;9.30;99.90
582;DHT22;277;50.074;8.436;2022-12-07T09:59:25;9.30;99.90
582;DHT22;277;50.074;8.436;2022-12-07T10:02:04;9.10;99.90
582;DHT22;277;50.074;8.436;2022-12-07T10:04:44;9.10;99.90
582;DHT22;277;50.074;8.436;2022-12-07T10:07:13;9.40;99.90
582;DHT22;277;50.074;8.436;2022-12-07T10:09:41;9.80;99.90
582;DHT22;277;50.074;8.436;2022-12-07T10:12:11;10.10;99.90
582;DHT22;277;50.074;8.436;2022-12-07T10:14:52;10.20;99.90
582;DHT22;277;50.074;8.436;2022-12-07T10:17:37;10.20;99.90
582;DHT22;277;50.074;8.436;2022-12-07T10:20:13;10.30;99.90
582;DHT22;277;50.074;8.436;2022-12-07T10:22:53;9.90;99.90
582;DHT22;277;50.074;8.436;2022-12-07T10:25:22;9.50;99.90
582;DHT22;277;50.074;8.436;2022-12-07T10:27:57;9.10;99.90
582;DHT22;277;50.074;8.436;2022-12-07T10:30:26;8.60;99.90
582;DHT22;277;50.074;8.436;2022-12-07T10:32:53;8.50;99.90
582;DHT22;277;50.074;8.436;2022-12-07T10:35:23;8.80;99.90
582;DHT22;277;50.074;8.436;2022-12-07T10:37:51;9.10;99.90
582;DHT22;277;50.074;8.436;2022-12-07T10:40:27;9.70;99.90
582;DHT22;277;50.074;8.436;2022-12-07T10:43:02;9.90;99.90
582;DHT22;277;50.074;8.436;2022-12-07T10:45:32;10.20;99.90
582;DHT22;277;50.074;8.436;2022-12-07T10:48:09;10.20;99.90
582;DHT22;277;50.074;8.436;2022-12-07T10:50:43;10.00;99.90
582;DHT22;277;50.074;8.436;2022-12-07T10:53:20;10.10;99.90
582;DHT22;277;50.074;8.436;2022-12-07T10:55:56;10.50;99.90
582;DHT22;277;50.074;8.436;2022-12-07T10:58:43;10.90;99.90
582;DHT22;277;50.074;8.436;2022-12-07T11:01:18;11.20;99.90
582;DHT22;277;50.074;8.436;2022-12-07T11:04:03;10.80;99.90
582;DHT22;277;50.074;8.436;2022-12-07T11:06:35;10.60;99.90
582;DHT22;277;50.074;8.436;2022-12-07T11:09:14;10.70;99.90
582;DHT22;277;50.074;8.436;2022-12-07T11:12:08;11.00;99.90
582;DHT22;277;50.074;8.436;2022-12-07T11:14:40;10.80;99.90
582;DHT22;277;50.074;8.436;2022-12-07T11:17:13;10.30;99.90
582;DHT22;277;50.074;8.436;2022-12-07T11:19:55;9.90;99.90
582;DHT22;277;50.074;8.436;2022-12-07T11:22:30;9.50;99.90
582;DHT22;277;50.074;8.436;2022-12-07T11:25:02;9.20;99.90
582;DHT22;277;50.074;8.436;2022-12-07T11:27:43;8.80;99.90
582;DHT22;277;50.074;8.436;2022-12-07T11:30:16;8.80;99.90
582;DHT22;277;50.074;8.436;2022-12-07T11:32:51;9.10;99.90
582;DHT22;277;50.074;8.436;2022-12-07T11:35:22;9.30;99.90
582;DHT22;277;50.074;8.436;2022-12-07T11:37:59;9.10;99.90
582;DHT22;277;50.074;8.436;2022-12-07T11:40:29;9.00;99.90
582;DHT22;277;50.074;8.436;2022-12-07T11:43:01;8.90;99.90
582;DHT22;277;50.074;8.436;2022-12-07T11:45:30;8.90;99.90
582;DHT22;277;50.074;8.436;2022-12-07T11:48:01;9.10;99.90
582;DHT22;277;50.074;8.436;2022-12-07T11:50:33;9.30;99.90
582;DHT22;277;50.074;8.436;2022-12-07T11:53:02;9.50;99.90
582;DHT22;277;50.074;8.436;2022-12-07T11:55:32;9.50;99.90
582;DHT22;277;50.074;8.436;2022-12-07T11:58:10;9.40;99.90
582;DHT22;277;50.074;8.436;2022-12-07T12:00:40;9.20;99.90
582;DHT22;277;50.074;8.436;2022-12-07T12:03:11;8.80;99.90
582;DHT22;277;50.074;8.436;2022-12-07T12:05:43;8.70;99.90
582;DHT22;277;50.074;8.436;2022-12-07T12:08:13;8.60;99.90
582;DHT22;277;50.074;8.436;2022-12-07T12:11:03;8.40;99.90
582;DHT22;277;50.074;8.436;2022-12-07T12:13:56;8.50;99.90
582;DHT22;277;50.074;8.436;2022-12-07T12:16:51;8.80;99.90
582;DHT22;277;50.074;8.436;2022-12-07T12:19:26;8.90;99.90
582;DHT22;277;50.074;8.436;2022-12-07T12:22:00;8.70;99.90
582;DHT22;277;50.074;8.436;2022-12-07T12:24:30;8.80;99.90
582;DHT22;277;50.074;8.436;2022-12-07T12:27:03;8.70;99.90
582;DHT22;277;50.074;8.436;2022-12-07T12:29:33;8.50;99.90
582;DHT22;277;50.074;8.436;2022-12-07T12:32:05;8.30;99.90
582;DHT22;277;50.074;8.436;2022-12-07T12:34:40;8.10;99.90
582;DHT22;277;50.074;8.436;2022-12-07T12:42:49;7.50;99.90
582;DHT22;277;50.074;8.436;2022-12-07T12:45:18;7.50;99.90
582;DHT22;277;50.074;8.436;2022-12-07T12:50:34;7.50;99.90
582;DHT22;277;50.074;8.436;2022-12-07T12:53:03;7.40;99.90
582;DHT22;277;50.074;8.436;2022-12-07T12:58:30;7.30;99.90
582;DHT22;277;50.074;8.436;2022-12-07T13:03:51;7.10;99.90
582;DHT22;277;50.074;8.436;2022-12-07T13:06:31;7.00;99.90
582;DHT22;277;50.074;8.436;2022-12-07T13:09:00;6.90;99.90
582;DHT22;277;50.074;8.436;2022-12-07T13:11:28;6.90;99.90
582;DHT22;277;50.074;8.436;2022-12-07T13:16:41;6.90;99.90
582;DHT22;277;50.074;8.436;2022-12-07T13:22:36;6.80;99.90
582;DHT22;277;50.074;8.436;2022-12-07T13:25:07;6.80;99.90
582;DHT22;277;50.074;8.436;2022-12-07T13:27:37;6.70;99.90
582;DHT22;277;50.074;8.436;2022-12-07T13:30:09;6.60;99.90
582;DHT22;277;50.074;8.436;2022-12-07T13:32:40;6.50;99.90
582;DHT22;277;50.074;8.436;2022-12-07T13:37:52;6.50;99.90
582;DHT22;277;50.074;8.436;2022-12-07T13:40:20;6.50;99.90
582;DHT22;277;50.074;8.436;2022-12-07T13:42:56;6.50;99.90
582;DHT22;277;50.074;8.436;2022-12-07T13:45:25;6.60;99.90
582;DHT22;277;50.074;8.436;2022-12-07T13:48:14;6.70;99.90
582;DHT22;277;50.074;8.436;2022-12-07T13:50:43;6.70;99.90
582;DHT22;277;50.074;8.436;2022-12-07T13:53:12;6.70;99.90
582;DHT22;277;50.074;8.436;2022-12-07T13:55:45;6.70;99.90
582;DHT22;277;50.074;8.436;2022-12-07T13:58:19;6.60;99.90
582;DHT22;277;50.074;8.436;2022-12-07T14:00:47;6.60;99.90
582;DHT22;277;50.074;8.436;2022-12-07T14:03:29;6.50;99.90
582;DHT22;277;50.074;8.436;2022-12-07T14:06:10;6.50;99.90
582;DHT22;277;50.074;8.436;2022-12-07T14:08:42;6.50;99.90
582;DHT22;277;50.074;8.436;2022-12-07T14:11:12;6.50;99.90
582;DHT22;277;50.074;8.436;2022-12-07T14:13:44;6.40;99.90
582;DHT22;277;50.074;8.436;2022-12-07T14:16:18;6.30;99.90
582;DHT22;277;50.074;8.436;2022-12-07T14:18:48;6.10;99.90
582;DHT22;277;50.074;8.436;2022-12-07T14:21:16;6.00;99.90
582;DHT22;277;50.074;8.436;2022-12-07T14:23:46;5.80;99.90
582;DHT22;277;50.074;8.436;2022-12-07T14:26:29;5.70;99.90
582;DHT22;277;50.074;8.436;2022-12-07T14:31:39;5.70;99.90
582;DHT22;277;50.074;8.436;2022-12-07T14:34:11;5.70;99.90
582;DHT22;277;50.074;8.436;2022-12-07T14:36:38;5.70;99.90
582;DHT22;277;50.074;8.436;2022-12-07T14:39:07;5.60;99.90
582;DHT22;277;50.074;8.436;2022-12-07T14:41:39;5.70;99.90
582;DHT22;277;50.074;8.436;2022-12-07T14:44:19;5.70;99.90
582;DHT22;277;50.074;8.436;2022-12-07T14:46:51;5.70;99.90
582;DHT22;277;50.074;8.436;2022-12-07T14:49:40;5.60;99.90
582;DHT22;277;50.074;8.436;2022-12-07T14:52:09;5.60;99.90
582;DHT22;277;50.074;8.436;2022-12-07T14:55:02;5.60;99.90
582;DHT22;277;50.074;8.436;2022-12-07T14:57:30;5.60;99.90
582;DHT22;277;50.074;8.436;2022-12-07T14:59:58;5.60;99.90
582;DHT22;277;50.074;8.436;2022-12-07T15:02:26;5.60;99.90
582;DHT22;277;50.074;8.436;2022-12-07T15:04:53;5.70;99.90
582;DHT22;277;50.074;8.436;2022-12-07T15:07:21;5.60;99.90
582;DHT22;277;50.074;8.436;2022-12-07T15:09:50;5.60;99.90
582;DHT22;277;50.074;8.436;2022-12-07T15:12:19;5.50;99.90
582;DHT22;277;50.074;8.436;2022-12-07T15:14:47;5.50;99.90
582;DHT22;277;50.074;8.436;2022-12-07T15:17:15;5.50;99.90
582;DHT22;277;50.074;8.436;2022-12-07T15:19:57;5.50;99.90
582;DHT22;277;50.074;8.436;2022-12-07T15:22:25;5.60;99.90
582;DHT22;277;50.074;8.436;2022-12-07T15:24:52;5.60;99.90
582;DHT22;277;50.074;8.436;2022-12-07T15:27:21;5.60;99.90
582;DHT22;277;50.074;8.436;2022-12-07T15:29:49;5.50;99.90
582;DHT22;277;50.074;8.436;2022-12-07T15:32:17;5.50;99.90
582;DHT22;277;50.074;8.436;2022-12-07T15:34:45;5.40;99.90
582;DHT22;277;50.074;8.436;2022-12-07T15:37:12;5.40;99.90
582;DHT22;277;50.074;8.436;2022-12-07T15:39:40;5.40;99.90
582;DHT22;277;50.074;8.436;2022-12-07T15:42:08;5.30;99.90
582;DHT22;277;50.074;8.436;2022-12-07T15:44:37;5.30;99.90
582;DHT22;277;50.074;8.436;2022-12-07T15:47:22;5.20;99.90
582;DHT22;277;50.074;8.436;2022-12-07T15:49:50;5.30;99.90
582;DHT22;277;50.074;8.436;2022-12-07T15:52:18;5.20;99.90
582;DHT22;277;50.074;8.436;2022-12-07T15:54:46;5.20;99.90
582;DHT22;277;50.074;8.436;2022-12-07T15:57:14;5.20;99.90
582;DHT22;277;50.074;8.436;2022-12-07T15:59:51;5.20;99.90
582;DHT22;277;50.074;8.436;2022-12-07T16:02:19;5.20;99.90
582;DHT22;277;50.074;8.436;2022-12-07T16:04:49;5.20;99.90
582;DHT22;277;50.074;8.436;2022-12-07T16:07:17;5.20;99.90
582;DHT22;277;50.074;8.436;2022-12-07T16:09:45;5.20;99.90
582;DHT22;277;50.074;8.436;2022-12-07T16:12:13;5.20;99.90
582;DHT22;277;50.074;8.436;2022-12-07T16:14:41;5.20;99.90
582;DHT22;277;50.074;8.436;2022-12-07T16:17:11;5.30;99.90
582;DHT22;277;50.074;8.436;2022-12-07T16:19:38;5.20;99.90
582;DHT22;277;50.074;8.436;2022-12-07T16:22:06;5.20;99.90
582;DHT22;277;50.074;8.436;2022-12-07T16:24:34;5.30;99.90
582;DHT22;277;50.074;8.436;2022-12-07T16:27:02;5.30;99.90
582;DHT22;277;50.074;8.436;2022-12-07T16:29:29;5.30;99.90
582;DHT22;277;50.074;8.436;2022-12-07T16:31:57;5.20;99.90
582;DHT22;277;50.074;8.436;2022-12-07T16:34:26;5.30;99.90
582;DHT22;277;50.074;8.436;2022-12-07T16:36:54;5.20;99.90
582;DHT22;277;50.074;8.436;2022-12-07T16:39:31;5.20;99.90
582;DHT22;277;50.074;8.436;2022-12-07T16:42:00;5.20;99.90
582;DHT22;277;50.074;8.436;2022-12-07T16:44:28;5.20;99.90
582;DHT22;277;50.074;8.436;2022-12-07T16:46:57;5.20;99.90
582;DHT22;277;50.074;8.436;2022-12-07T16:49:24;5.20;99.90
582;DHT22;277;50.074;8.436;2022-12-07T16:51:53;5.30;99.90
582;DHT22;277;50.074;8.436;2022-12-07T16:54:41;5.20;99.90
582;DHT22;277;50.074;8.436;2022-12-07T16:57:09;5.20;99.90
582;DHT22;277;50.074;8.436;2022-12-07T16:59:44;5.30;99.90
582;DHT22;277;50.074;8.436;2022-12-07T17:02:12;5.20;99.90
582;DHT22;277;50.074;8.436;2022-12-07T17:04:40;5.30;99.90
582;DHT22;277;50.074;8.436;2022-12-07T17:07:10;5.30;99.90
582;DHT22;277;50.074;8.436;2022-12-07T17:09:37;5.30;99.90
582;DHT22;277;50.074;8.436;2022-12-07T17:12:05;5.30;99.90
582;DHT22;277;50.074;8.436;2022-12-07T17:14:33;5.20;99.90
582;DHT22;277;50.074;8.436;2022-12-07T17:17:18;5.30;99.90
582;DHT22;277;50.074;8.436;2022-12-07T17:19:46;5.30;99.90
582;DHT22;277;50.074;8.436;2022-12-07T17:22:15;5.30;99.90
582;DHT22;277;50.074;8.436;2022-12-07T17:24:43;5.20;99.90
582;DHT22;277;50.074;8.436;2022-12-07T17:27:11;5.20;99.90
582;DHT22;277;50.074;8.436;2022-12-07T17:29:38;5.10;99.90
582;DHT22;277;50.074;8.436;2022-12-07T17:32:06;5.10;99.90
582;DHT22;277;50.074;8.436;2022-12-07T17:34:34;5.00;99.90
582;DHT22;277;50.074;8.436;2022-12-07T17:37:03;5.10;99.90
582;DHT22;277;50.074;8.436;2022-12-07T17:39:32;5.00;99.90
582;DHT22;277;50.074;8.436;2022-12-07T17:42:00;5.00;99.90
582;DHT22;277;50.074;8.436;2022-12-07T17:44:45;5.00;99.90